sensor_id;sensor_type;location;lat;lon;timestamp;P1;durP1;ratioP1;P2;durP2;ratioP2
4738;SDS011;2383;48.632;10.156;2022-10-16T00:03:08;7.38;;;3.67;;
4738;SDS011;2383;48.632;10.156;2022-10-16T00:07:15;6.20;;;3.00;;
4738;SDS011;2383;48.632;10.156;2022-10-16T00:11:17;8.45;;;3.33;;
4738;SDS011;2383;48.632;10.156;2022-10-16T00:15:19;6.22;;;2.95;;
4738;SDS011;2383;48.632;10.156;2022-10-16T00:19:21;7.53;;;2.90;;
4738;SDS011;2383;48.632;10.156;2022-10-16T00:23:23;6.70;;;2.72;;
4738;SDS011;2383;48.632;10.156;2022-10-16T00:27:26;4.20;;;2.50;;
4738;SDS011;2383;48.632;10.156;2022-10-16T00:31:28;4.18;;;2.80;;
4738;SDS011;2383;48.632;10.156;2022-10-16T00:35:30;8.15;;;2.53;;
4738;SDS011;2383;48.632;10.156;2022-10-16T00:39:32;2.03;;;1.88;;
4738;SDS011;2383;48.632;10.156;2022-10-16T00:43:44;5.18;;;2.45;;
4738;SDS011;2383;48.632;10.156;2022-10-16T00:47:56;6.57;;;2.25;;
4738;SDS011;2383;48.632;10.156;2022-10-16T00:51:58;5.90;;;2.38;;
4738;SDS011;2383;48.632;10.156;2022-10-16T00:56:02;3.47;;;2.53;;
4738;SDS011;2383;48.632;10.156;2022-10-16T01:00:05;5.22;;;2.40;;
4738;SDS011;2383;48.632;10.156;2022-10-16T01:04:09;6.38;;;2.50;;
4738;SDS011;2383;48.632;10.156;2022-10-16T01:08:12;7.93;;;2.75;;
4738;SDS011;2383;48.632;10.156;2022-10-16T01:16:49;4.43;;;3.30;;
4738;SDS011;2383;48.632;10.156;2022-10-16T01:21:08;5.82;;;2.25;;
4738;SDS011;2383;48.632;10.156;2022-10-16T01:25:18;4.97;;;2.10;;
4738;SDS011;2383;48.632;10.156;2022-10-16T01:34:02;7.35;;;2.70;;
4738;SDS011;2383;48.632;10.156;2022-10-16T01:38:12;9.38;;;2.72;;
4738;SDS011;2383;48.632;10.156;2022-10-16T01:42:45;6.40;;;2.47;;
4738;SDS011;2383;48.632;10.156;2022-10-16T01:46:51;9.48;;;2.65;;
4738;SDS011;2383;48.632;10.156;2022-10-16T01:51:14;3.27;;;2.10;;
4738;SDS011;2383;48.632;10.156;2022-10-16T01:55:19;5.10;;;2.40;;
4738;SDS011;2383;48.632;10.156;2022-10-16T01:59:29;3.92;;;2.55;;
4738;SDS011;2383;48.632;10.156;2022-10-16T02:03:34;4.45;;;2.92;;
4738;SDS011;2383;48.632;10.156;2022-10-16T02:07:38;5.78;;;2.95;;
4738;SDS011;2383;48.632;10.156;2022-10-16T02:11:39;5.47;;;2.60;;
4738;SDS011;2383;48.632;10.156;2022-10-16T02:15:41;3.90;;;3.00;;
4738;SDS011;2383;48.632;10.156;2022-10-16T02:19:46;2.67;;;2.22;;
4738;SDS011;2383;48.632;10.156;2022-10-16T02:23:51;2.25;;;2.05;;
4738;SDS011;2383;48.632;10.156;2022-10-16T02:28:12;3.15;;;2.22;;
4738;SDS011;2383;48.632;10.156;2022-10-16T02:32:21;2.38;;;2.17;;
4738;SDS011;2383;48.632;10.156;2022-10-16T02:36:26;2.47;;;2.15;;
4738;SDS011;2383;48.632;10.156;2022-10-16T02:40:28;7.57;;;2.37;;
4738;SDS011;2383;48.632;10.156;2022-10-16T02:44:30;6.40;;;2.30;;
4738;SDS011;2383;48.632;10.156;2022-10-16T02:48:32;5.13;;;2.50;;
4738;SDS011;2383;48.632;10.156;2022-10-16T02:52:34;6.07;;;2.55;;
4738;SDS011;2383;48.632;10.156;2022-10-16T02:56:36;6.55;;;2.90;;
4738;SDS011;2383;48.632;10.156;2022-10-16T03:00:39;3.88;;;2.88;;
4738;SDS011;2383;48.632;10.156;2022-10-16T03:04:40;8.00;;;3.38;;
4738;SDS011;2383;48.632;10.156;2022-10-16T03:08:42;5.90;;;3.22;;
4738;SDS011;2383;48.632;10.156;2022-10-16T03:12:44;7.55;;;2.67;;
4738;SDS011;2383;48.632;10.156;2022-10-16T03:16:54;5.65;;;3.05;;
4738;SDS011;2383;48.632;10.156;2022-10-16T03:20:56;4.78;;;3.00;;
4738;SDS011;2383;48.632;10.156;2022-10-16T03:24:58;5.18;;;2.80;;
4738;SDS011;2383;48.632;10.156;2022-10-16T03:28:59;10.57;;;3.10;;
4738;SDS011;2383;48.632;10.156;2022-10-16T03:33:05;5.85;;;3.20;;
4738;SDS011;2383;48.632;10.156;2022-10-16T03:37:08;6.18;;;3.17;;
4738;SDS011;2383;48.632;10.156;2022-10-16T03:41:11;5.53;;;3.40;;
4738;SDS011;2383;48.632;10.156;2022-10-16T03:45:12;4.10;;;3.08;;
4738;SDS011;2383;48.632;10.156;2022-10-16T03:49:14;5.33;;;3.07;;
4738;SDS011;2383;48.632;10.156;2022-10-16T03:53:16;10.60;;;3.47;;
4738;SDS011;2383;48.632;10.156;2022-10-16T03:57:18;7.28;;;3.40;;
4738;SDS011;2383;48.632;10.156;2022-10-16T04:01:21;5.57;;;3.30;;
4738;SDS011;2383;48.632;10.156;2022-10-16T04:05:23;8.23;;;3.08;;
4738;SDS011;2383;48.632;10.156;2022-10-16T04:09:25;9.35;;;3.00;;
4738;SDS011;2383;48.632;10.156;2022-10-16T04:13:27;6.32;;;2.90;;
4738;SDS011;2383;48.632;10.156;2022-10-16T04:17:29;6.60;;;2.90;;
4738;SDS011;2383;48.632;10.156;2022-10-16T04:21:31;7.28;;;3.33;;
4738;SDS011;2383;48.632;10.156;2022-10-16T04:25:32;5.25;;;2.58;;
4738;SDS011;2383;48.632;10.156;2022-10-16T04:29:34;3.08;;;2.63;;
4738;SDS011;2383;48.632;10.156;2022-10-16T04:33:36;5.88;;;2.58;;
4738;SDS011;2383;48.632;10.156;2022-10-16T04:37:38;5.78;;;3.20;;
4738;SDS011;2383;48.632;10.156;2022-10-16T04:41:40;4.15;;;3.42;;
4738;SDS011;2383;48.632;10.156;2022-10-16T04:45:41;8.05;;;3.15;;
4738;SDS011;2383;48.632;10.156;2022-10-16T04:49:43;5.05;;;3.28;;
4738;SDS011;2383;48.632;10.156;2022-10-16T04:53:45;6.22;;;3.42;;
4738;SDS011;2383;48.632;10.156;2022-10-16T04:57:46;10.45;;;3.72;;
4738;SDS011;2383;48.632;10.156;2022-10-16T05:01:49;6.43;;;3.30;;
4738;SDS011;2383;48.632;10.156;2022-10-16T05:05:51;11.47;;;3.00;;
4738;SDS011;2383;48.632;10.156;2022-10-16T05:09:54;5.72;;;3.72;;
4738;SDS011;2383;48.632;10.156;2022-10-16T05:13:55;5.50;;;3.10;;
4738;SDS011;2383;48.632;10.156;2022-10-16T05:17:57;4.55;;;3.05;;
4738;SDS011;2383;48.632;10.156;2022-10-16T05:21:59;10.32;;;2.92;;
4738;SDS011;2383;48.632;10.156;2022-10-16T05:26:01;7.40;;;3.10;;
4738;SDS011;2383;48.632;10.156;2022-10-16T05:30:03;11.38;;;3.60;;
4738;SDS011;2383;48.632;10.156;2022-10-16T05:34:08;9.02;;;3.28;;
4738;SDS011;2383;48.632;10.156;2022-10-16T05:38:10;6.20;;;3.20;;
4738;SDS011;2383;48.632;10.156;2022-10-16T05:42:14;10.75;;;2.83;;
4738;SDS011;2383;48.632;10.156;2022-10-16T05:46:16;4.75;;;2.70;;
4738;SDS011;2383;48.632;10.156;2022-10-16T05:50:18;6.50;;;2.90;;
4738;SDS011;2383;48.632;10.156;2022-10-16T05:54:20;5.72;;;2.95;;
4738;SDS011;2383;48.632;10.156;2022-10-16T05:58:22;5.90;;;3.33;;
4738;SDS011;2383;48.632;10.156;2022-10-16T06:02:25;6.95;;;3.00;;
4738;SDS011;2383;48.632;10.156;2022-10-16T06:06:27;4.45;;;3.60;;
4738;SDS011;2383;48.632;10.156;2022-10-16T06:10:30;10.88;;;5.43;;
4738;SDS011;2383;48.632;10.156;2022-10-16T06:14:32;9.57;;;5.78;;
4738;SDS011;2383;48.632;10.156;2022-10-16T06:18:34;11.07;;;6.00;;
4738;SDS011;2383;48.632;10.156;2022-10-16T06:22:36;9.48;;;4.97;;
4738;SDS011;2383;48.632;10.156;2022-10-16T06:26:38;7.93;;;3.70;;
4738;SDS011;2383;48.632;10.156;2022-10-16T06:30:40;6.15;;;3.60;;
4738;SDS011;2383;48.632;10.156;2022-10-16T06:34:56;6.20;;;3.95;;
4738;SDS011;2383;48.632;10.156;2022-10-16T06:38:57;9.60;;;3.70;;
4738;SDS011;2383;48.632;10.156;2022-10-16T06:42:59;6.35;;;3.65;;
4738;SDS011;2383;48.632;10.156;2022-10-16T06:47:01;9.50;;;4.05;;
4738;SDS011;2383;48.632;10.156;2022-10-16T06:51:08;8.18;;;4.13;;
4738;SDS011;2383;48.632;10.156;2022-10-16T06:55:11;14.18;;;4.30;;
4738;SDS011;2383;48.632;10.156;2022-10-16T06:59:13;6.10;;;4.07;;
4738;SDS011;2383;48.632;10.156;2022-10-16T07:03:14;8.63;;;4.80;;
4738;SDS011;2383;48.632;10.156;2022-10-16T07:07:16;12.07;;;5.47;;
4738;SDS011;2383;48.632;10.156;2022-10-16T07:11:19;6.18;;;4.45;;
4738;SDS011;2383;48.632;10.156;2022-10-16T07:15:22;9.73;;;5.25;;
4738;SDS011;2383;48.632;10.156;2022-10-16T07:19:25;6.63;;;5.00;;
4738;SDS011;2383;48.632;10.156;2022-10-16T07:23:32;7.22;;;4.10;;
4738;SDS011;2383;48.632;10.156;2022-10-16T07:27:34;4.45;;;3.50;;
4738;SDS011;2383;48.632;10.156;2022-10-16T07:31:41;4.35;;;3.78;;
4738;SDS011;2383;48.632;10.156;2022-10-16T07:35:52;6.88;;;4.10;;
4738;SDS011;2383;48.632;10.156;2022-10-16T07:39:55;9.73;;;3.90;;
4738;SDS011;2383;48.632;10.156;2022-10-16T07:43:57;8.75;;;4.10;;
4738;SDS011;2383;48.632;10.156;2022-10-16T07:48:01;5.05;;;4.47;;
4738;SDS011;2383;48.632;10.156;2022-10-16T07:52:03;5.05;;;4.15;;
4738;SDS011;2383;48.632;10.156;2022-10-16T07:56:05;5.15;;;4.05;;
4738;SDS011;2383;48.632;10.156;2022-10-16T08:00:08;4.88;;;4.40;;
4738;SDS011;2383;48.632;10.156;2022-10-16T08:04:14;5.57;;;4.22;;
4738;SDS011;2383;48.632;10.156;2022-10-16T08:08:17;4.60;;;4.20;;
4738;SDS011;2383;48.632;10.156;2022-10-16T08:12:19;7.15;;;4.28;;
4738;SDS011;2383;48.632;10.156;2022-10-16T08:16:21;4.25;;;3.85;;
4738;SDS011;2383;48.632;10.156;2022-10-16T08:20:23;5.10;;;4.40;;
4738;SDS011;2383;48.632;10.156;2022-10-16T08:24:25;4.57;;;3.75;;
4738;SDS011;2383;48.632;10.156;2022-10-16T08:28:27;5.88;;;4.05;;
4738;SDS011;2383;48.632;10.156;2022-10-16T08:32:30;9.93;;;5.20;;
4738;SDS011;2383;48.632;10.156;2022-10-16T08:36:34;5.75;;;4.70;;
4738;SDS011;2383;48.632;10.156;2022-10-16T08:40:36;9.90;;;4.65;;
4738;SDS011;2383;48.632;10.156;2022-10-16T08:52:52;7.22;;;4.10;;
4738;SDS011;2383;48.632;10.156;2022-10-16T08:57:00;6.55;;;3.78;;
4738;SDS011;2383;48.632;10.156;2022-10-16T09:01:11;6.47;;;4.13;;
4738;SDS011;2383;48.632;10.156;2022-10-16T09:05:23;4.85;;;3.83;;
4738;SDS011;2383;48.632;10.156;2022-10-16T09:27:13;5.72;;;3.47;;
4738;SDS011;2383;48.632;10.156;2022-10-16T09:31:17;11.60;;;3.72;;
4738;SDS011;2383;48.632;10.156;2022-10-16T09:35:21;6.03;;;3.63;;
4738;SDS011;2383;48.632;10.156;2022-10-16T09:39:28;6.57;;;3.42;;
4738;SDS011;2383;48.632;10.156;2022-10-16T09:43:46;6.60;;;3.58;;
4738;SDS011;2383;48.632;10.156;2022-10-16T09:48:00;6.07;;;3.28;;
4738;SDS011;2383;48.632;10.156;2022-10-16T09:52:12;5.95;;;3.50;;
4738;SDS011;2383;48.632;10.156;2022-10-16T09:56:24;4.55;;;3.10;;
4738;SDS011;2383;48.632;10.156;2022-10-16T10:00:28;5.75;;;3.08;;
4738;SDS011;2383;48.632;10.156;2022-10-16T10:05:05;5.53;;;3.05;;
4738;SDS011;2383;48.632;10.156;2022-10-16T10:13:02;3.83;;;3.15;;
4738;SDS011;2383;48.632;10.156;2022-10-16T10:21:12;5.45;;;2.35;;
4738;SDS011;2383;48.632;10.156;2022-10-16T10:25:22;7.10;;;2.40;;
4738;SDS011;2383;48.632;10.156;2022-10-16T10:34:11;5.30;;;3.25;;
4738;SDS011;2383;48.632;10.156;2022-10-16T10:38:47;3.60;;;2.40;;
4738;SDS011;2383;48.632;10.156;2022-10-16T11:02:18;6.18;;;1.95;;
4738;SDS011;2383;48.632;10.156;2022-10-16T11:06:34;6.80;;;1.92;;
4738;SDS011;2383;48.632;10.156;2022-10-16T11:15:23;5.60;;;2.88;;
4738;SDS011;2383;48.632;10.156;2022-10-16T11:19:37;6.68;;;2.40;;
4738;SDS011;2383;48.632;10.156;2022-10-16T11:23:55;4.90;;;2.55;;
4738;SDS011;2383;48.632;10.156;2022-10-16T11:32:56;7.68;;;2.67;;
4738;SDS011;2383;48.632;10.156;2022-10-16T11:37:06;6.78;;;2.28;;
4738;SDS011;2383;48.632;10.156;2022-10-16T11:49:26;5.43;;;2.35;;
4738;SDS011;2383;48.632;10.156;2022-10-16T11:53:45;3.22;;;2.03;;
4738;SDS011;2383;48.632;10.156;2022-10-16T11:58:05;5.13;;;2.10;;
4738;SDS011;2383;48.632;10.156;2022-10-16T12:06:53;3.72;;;2.10;;
4738;SDS011;2383;48.632;10.156;2022-10-16T12:11:19;5.07;;;1.95;;
4738;SDS011;2383;48.632;10.156;2022-10-16T12:15:32;5.18;;;2.17;;
4738;SDS011;2383;48.632;10.156;2022-10-16T12:28:30;4.07;;;2.50;;
4738;SDS011;2383;48.632;10.156;2022-10-16T12:32:38;5.13;;;2.40;;
4738;SDS011;2383;48.632;10.156;2022-10-16T12:36:47;3.08;;;1.88;;
4738;SDS011;2383;48.632;10.156;2022-10-16T12:45:12;4.30;;;1.60;;
4738;SDS011;2383;48.632;10.156;2022-10-16T12:49:37;4.80;;;1.90;;
4738;SDS011;2383;48.632;10.156;2022-10-16T12:53:40;5.50;;;1.70;;
4738;SDS011;2383;48.632;10.156;2022-10-16T13:11:50;2.10;;;1.80;;
4738;SDS011;2383;48.632;10.156;2022-10-16T13:20:49;1.88;;;1.30;;
4738;SDS011;2383;48.632;10.156;2022-10-16T13:29:16;5.32;;;1.48;;
4738;SDS011;2383;48.632;10.156;2022-10-16T13:33:41;5.30;;;1.98;;
4738;SDS011;2383;48.632;10.156;2022-10-16T13:37:43;3.28;;;1.58;;
4738;SDS011;2383;48.632;10.156;2022-10-16T13:41:45;3.10;;;1.60;;
4738;SDS011;2383;48.632;10.156;2022-10-16T13:46:11;5.22;;;1.73;;
4738;SDS011;2383;48.632;10.156;2022-10-16T13:50:19;4.32;;;1.80;;
4738;SDS011;2383;48.632;10.156;2022-10-16T13:54:21;4.25;;;1.95;;
4738;SDS011;2383;48.632;10.156;2022-10-16T13:58:23;5.15;;;1.63;;
4738;SDS011;2383;48.632;10.156;2022-10-16T14:02:35;1.83;;;1.52;;
4738;SDS011;2383;48.632;10.156;2022-10-16T14:06:46;4.00;;;1.80;;
4738;SDS011;2383;48.632;10.156;2022-10-16T14:10:53;3.90;;;1.90;;
4738;SDS011;2383;48.632;10.156;2022-10-16T14:14:57;3.92;;;1.73;;
4738;SDS011;2383;48.632;10.156;2022-10-16T14:19:01;3.10;;;1.50;;
4738;SDS011;2383;48.632;10.156;2022-10-16T14:23:28;5.28;;;1.83;;
4738;SDS011;2383;48.632;10.156;2022-10-16T14:27:33;4.90;;;1.88;;
4738;SDS011;2383;48.632;10.156;2022-10-16T14:31:36;2.95;;;1.70;;
4738;SDS011;2383;48.632;10.156;2022-10-16T14:35:40;3.00;;;1.67;;
4738;SDS011;2383;48.632;10.156;2022-10-16T14:39:42;2.42;;;1.73;;
4738;SDS011;2383;48.632;10.156;2022-10-16T14:43:52;4.35;;;1.90;;
4738;SDS011;2383;48.632;10.156;2022-10-16T14:47:57;5.93;;;1.80;;
4738;SDS011;2383;48.632;10.156;2022-10-16T14:52:20;2.72;;;1.70;;
4738;SDS011;2383;48.632;10.156;2022-10-16T14:56:23;3.92;;;1.70;;
4738;SDS011;2383;48.632;10.156;2022-10-16T15:00:27;4.53;;;1.98;;
4738;SDS011;2383;48.632;10.156;2022-10-16T15:04:29;6.75;;;1.88;;
4738;SDS011;2383;48.632;10.156;2022-10-16T15:08:31;3.85;;;2.42;;
4738;SDS011;2383;48.632;10.156;2022-10-16T15:12:32;2.42;;;2.17;;
4738;SDS011;2383;48.632;10.156;2022-10-16T15:16:36;3.03;;;1.70;;
4738;SDS011;2383;48.632;10.156;2022-10-16T15:20:38;1.70;;;1.50;;
4738;SDS011;2383;48.632;10.156;2022-10-16T15:24:40;3.30;;;1.90;;
4738;SDS011;2383;48.632;10.156;2022-10-16T15:28:42;2.97;;;2.40;;
4738;SDS011;2383;48.632;10.156;2022-10-16T15:32:44;5.82;;;2.67;;
4738;SDS011;2383;48.632;10.156;2022-10-16T15:36:46;4.13;;;3.00;;
4738;SDS011;2383;48.632;10.156;2022-10-16T15:40:48;5.00;;;2.85;;
4738;SDS011;2383;48.632;10.156;2022-10-16T15:44:50;7.60;;;3.05;;
4738;SDS011;2383;48.632;10.156;2022-10-16T15:48:55;2.72;;;2.15;;
4738;SDS011;2383;48.632;10.156;2022-10-16T15:53:04;6.95;;;2.35;;
4738;SDS011;2383;48.632;10.156;2022-10-16T15:57:06;8.73;;;2.88;;
4738;SDS011;2383;48.632;10.156;2022-10-16T16:01:08;5.72;;;2.20;;
4738;SDS011;2383;48.632;10.156;2022-10-16T16:05:11;5.30;;;2.38;;
4738;SDS011;2383;48.632;10.156;2022-10-16T16:09:15;3.30;;;2.10;;
4738;SDS011;2383;48.632;10.156;2022-10-16T16:13:16;14.63;;;6.90;;
4738;SDS011;2383;48.632;10.156;2022-10-16T16:17:18;25.08;;;12.32;;
4738;SDS011;2383;48.632;10.156;2022-10-16T16:21:20;7.78;;;3.50;;
4738;SDS011;2383;48.632;10.156;2022-10-16T16:25:22;4.15;;;3.00;;
4738;SDS011;2383;48.632;10.156;2022-10-16T16:29:24;14.38;;;6.82;;
4738;SDS011;2383;48.632;10.156;2022-10-16T16:33:29;12.40;;;6.40;;
4738;SDS011;2383;48.632;10.156;2022-10-16T16:37:32;8.52;;;3.35;;
4738;SDS011;2383;48.632;10.156;2022-10-16T16:41:34;8.70;;;4.47;;
4738;SDS011;2383;48.632;10.156;2022-10-16T16:45:36;7.13;;;3.50;;
4738;SDS011;2383;48.632;10.156;2022-10-16T16:49:38;6.53;;;3.38;;
4738;SDS011;2383;48.632;10.156;2022-10-16T16:53:41;7.10;;;3.80;;
4738;SDS011;2383;48.632;10.156;2022-10-16T16:57:47;141.45;;;31.45;;
4738;SDS011;2383;48.632;10.156;2022-10-16T17:01:53;51.63;;;14.23;;
4738;SDS011;2383;48.632;10.156;2022-10-16T17:10:00;23.15;;;7.47;;
4738;SDS011;2383;48.632;10.156;2022-10-16T17:14:02;42.65;;;17.98;;
4738;SDS011;2383;48.632;10.156;2022-10-16T17:18:04;26.60;;;11.70;;
4738;SDS011;2383;48.632;10.156;2022-10-16T17:22:06;39.25;;;14.43;;
4738;SDS011;2383;48.632;10.156;2022-10-16T17:26:09;11.70;;;7.43;;
4738;SDS011;2383;48.632;10.156;2022-10-16T17:30:13;12.75;;;6.40;;
4738;SDS011;2383;48.632;10.156;2022-10-16T17:34:15;15.02;;;7.15;;
4738;SDS011;2383;48.632;10.156;2022-10-16T17:38:18;12.80;;;5.38;;
4738;SDS011;2383;48.632;10.156;2022-10-16T17:42:21;16.40;;;4.00;;
4738;SDS011;2383;48.632;10.156;2022-10-16T17:46:23;5.28;;;4.53;;
4738;SDS011;2383;48.632;10.156;2022-10-16T17:50:26;11.95;;;7.28;;
4738;SDS011;2383;48.632;10.156;2022-10-16T17:54:27;22.73;;;15.60;;
4738;SDS011;2383;48.632;10.156;2022-10-16T17:58:29;15.07;;;8.95;;
4738;SDS011;2383;48.632;10.156;2022-10-16T18:02:31;13.18;;;6.38;;
4738;SDS011;2383;48.632;10.156;2022-10-16T18:06:34;10.30;;;3.67;;
4738;SDS011;2383;48.632;10.156;2022-10-16T18:10:43;7.55;;;2.72;;
4738;SDS011;2383;48.632;10.156;2022-10-16T18:14:47;8.27;;;2.70;;
4738;SDS011;2383;48.632;10.156;2022-10-16T18:18:50;7.28;;;2.83;;
4738;SDS011;2383;48.632;10.156;2022-10-16T18:22:52;7.95;;;4.47;;
4738;SDS011;2383;48.632;10.156;2022-10-16T18:26:54;11.25;;;5.55;;
4738;SDS011;2383;48.632;10.156;2022-10-16T18:30:57;13.25;;;7.75;;
4738;SDS011;2383;48.632;10.156;2022-10-16T18:35:01;16.25;;;7.90;;
4738;SDS011;2383;48.632;10.156;2022-10-16T18:39:04;21.38;;;11.80;;
4738;SDS011;2383;48.632;10.156;2022-10-16T18:43:09;20.33;;;8.00;;
4738;SDS011;2383;48.632;10.156;2022-10-16T18:47:12;11.75;;;6.85;;
4738;SDS011;2383;48.632;10.156;2022-10-16T18:55:20;17.13;;;5.75;;
4738;SDS011;2383;48.632;10.156;2022-10-16T18:59:37;11.30;;;4.32;;
4738;SDS011;2383;48.632;10.156;2022-10-16T19:03:40;11.57;;;3.70;;
4738;SDS011;2383;48.632;10.156;2022-10-16T19:07:46;11.68;;;5.13;;
4738;SDS011;2383;48.632;10.156;2022-10-16T19:11:48;11.70;;;4.00;;
4738;SDS011;2383;48.632;10.156;2022-10-16T19:15:50;11.57;;;3.90;;
4738;SDS011;2383;48.632;10.156;2022-10-16T19:19:58;13.25;;;5.43;;
4738;SDS011;2383;48.632;10.156;2022-10-16T19:24:06;8.32;;;3.60;;
4738;SDS011;2383;48.632;10.156;2022-10-16T19:28:11;12.70;;;4.72;;
4738;SDS011;2383;48.632;10.156;2022-10-16T19:32:12;7.80;;;3.95;;
4738;SDS011;2383;48.632;10.156;2022-10-16T19:36:18;6.05;;;2.90;;
4738;SDS011;2383;48.632;10.156;2022-10-16T19:40:24;8.70;;;2.63;;
4738;SDS011;2383;48.632;10.156;2022-10-16T19:44:26;10.93;;;3.42;;
4738;SDS011;2383;48.632;10.156;2022-10-16T19:48:28;12.38;;;3.75;;
4738;SDS011;2383;48.632;10.156;2022-10-16T19:52:45;8.05;;;2.78;;
4738;SDS011;2383;48.632;10.156;2022-10-16T19:56:47;9.82;;;3.90;;
4738;SDS011;2383;48.632;10.156;2022-10-16T20:00:49;11.38;;;7.78;;
4738;SDS011;2383;48.632;10.156;2022-10-16T20:04:53;17.95;;;9.25;;
4738;SDS011;2383;48.632;10.156;2022-10-16T20:08:55;16.63;;;7.90;;
4738;SDS011;2383;48.632;10.156;2022-10-16T20:13:05;14.75;;;9.48;;
4738;SDS011;2383;48.632;10.156;2022-10-16T20:17:08;14.82;;;8.10;;
4738;SDS011;2383;48.632;10.156;2022-10-16T20:21:14;11.00;;;5.43;;
4738;SDS011;2383;48.632;10.156;2022-10-16T20:25:22;9.27;;;4.80;;
4738;SDS011;2383;48.632;10.156;2022-10-16T20:29:24;9.40;;;3.83;;
4738;SDS011;2383;48.632;10.156;2022-10-16T20:33:26;8.75;;;3.72;;
4738;SDS011;2383;48.632;10.156;2022-10-16T20:37:29;7.82;;;3.53;;
4738;SDS011;2383;48.632;10.156;2022-10-16T20:41:33;10.35;;;4.68;;
4738;SDS011;2383;48.632;10.156;2022-10-16T20:45:45;10.07;;;3.83;;
4738;SDS011;2383;48.632;10.156;2022-10-16T20:49:47;8.65;;;4.07;;
4738;SDS011;2383;48.632;10.156;2022-10-16T20:54:02;7.18;;;3.60;;
4738;SDS011;2383;48.632;10.156;2022-10-16T20:58:05;7.18;;;3.92;;
4738;SDS011;2383;48.632;10.156;2022-10-16T21:02:09;10.68;;;3.53;;
4738;SDS011;2383;48.632;10.156;2022-10-16T21:06:14;8.13;;;3.50;;
4738;SDS011;2383;48.632;10.156;2022-10-16T21:10:17;11.02;;;4.65;;
4738;SDS011;2383;48.632;10.156;2022-10-16T21:14:20;10.57;;;4.35;;
4738;SDS011;2383;48.632;10.156;2022-10-16T21:18:22;9.65;;;4.70;;
4738;SDS011;2383;48.632;10.156;2022-10-16T21:22:28;10.30;;;5.35;;
4738;SDS011;2383;48.632;10.156;2022-10-16T21:26:41;14.68;;;5.50;;
4738;SDS011;2383;48.632;10.156;2022-10-16T21:30:44;7.60;;;5.70;;
4738;SDS011;2383;48.632;10.156;2022-10-16T21:34:46;11.37;;;6.83;;
4738;SDS011;2383;48.632;10.156;2022-10-16T21:38:48;12.40;;;6.22;;
4738;SDS011;2383;48.632;10.156;2022-10-16T21:42:58;11.00;;;5.93;;
4738;SDS011;2383;48.632;10.156;2022-10-16T21:47:02;11.90;;;6.70;;
4738;SDS011;2383;48.632;10.156;2022-10-16T21:51:04;13.60;;;6.18;;
4738;SDS011;2383;48.632;10.156;2022-10-16T21:55:12;11.52;;;5.35;;
4738;SDS011;2383;48.632;10.156;2022-10-16T21:59:40;12.75;;;5.65;;
4738;SDS011;2383;48.632;10.156;2022-10-16T22:03:43;16.20;;;5.75;;
4738;SDS011;2383;48.632;10.156;2022-10-16T22:07:48;10.82;;;5.15;;
4738;SDS011;2383;48.632;10.156;2022-10-16T22:11:49;9.88;;;5.70;;
4738;SDS011;2383;48.632;10.156;2022-10-16T22:15:52;9.38;;;6.32;;
4738;SDS011;2383;48.632;10.156;2022-10-16T22:19:56;8.25;;;5.75;;
4738;SDS011;2383;48.632;10.156;2022-10-16T22:23:59;11.57;;;5.43;;
4738;SDS011;2383;48.632;10.156;2022-10-16T22:28:03;11.63;;;5.05;;
4738;SDS011;2383;48.632;10.156;2022-10-16T22:32:05;8.93;;;4.75;;
4738;SDS011;2383;48.632;10.156;2022-10-16T22:36:15;9.97;;;4.50;;
4738;SDS011;2383;48.632;10.156;2022-10-16T22:40:17;11.02;;;5.05;;
4738;SDS011;2383;48.632;10.156;2022-10-16T22:44:21;12.68;;;5.05;;
4738;SDS011;2383;48.632;10.156;2022-10-16T22:48:35;9.48;;;5.72;;
4738;SDS011;2383;48.632;10.156;2022-10-16T22:52:38;14.48;;;7.65;;
4738;SDS011;2383;48.632;10.156;2022-10-16T22:56:57;12.18;;;5.32;;
4738;SDS011;2383;48.632;10.156;2022-10-16T23:01:01;10.40;;;6.10;;
4738;SDS011;2383;48.632;10.156;2022-10-16T23:05:14;12.02;;;6.13;;
4738;SDS011;2383;48.632;10.156;2022-10-16T23:09:16;11.97;;;6.23;;
4738;SDS011;2383;48.632;10.156;2022-10-16T23:13:19;15.05;;;6.15;;
4738;SDS011;2383;48.632;10.156;2022-10-16T23:17:21;7.95;;;4.95;;
4738;SDS011;2383;48.632;10.156;2022-10-16T23:21:25;11.88;;;5.57;;
4738;SDS011;2383;48.632;10.156;2022-10-16T23:25:28;9.80;;;5.82;;
4738;SDS011;2383;48.632;10.156;2022-10-16T23:29:30;14.27;;;6.20;;
4738;SDS011;2383;48.632;10.156;2022-10-16T23:33:33;16.90;;;5.75;;
4738;SDS011;2383;48.632;10.156;2022-10-16T23:37:36;8.32;;;3.72;;
4738;SDS011;2383;48.632;10.156;2022-10-16T23:41:38;5.45;;;3.13;;
4738;SDS011;2383;48.632;10.156;2022-10-16T23:45:45;5.13;;;3.05;;
4738;SDS011;2383;48.632;10.156;2022-10-16T23:49:47;6.43;;;2.92;;
4738;SDS011;2383;48.632;10.156;2022-10-16T23:53:49;9.13;;;3.75;;
4738;SDS011;2383;48.632;10.156;2022-10-16T23:57:52;6.57;;;2.93;;
